sensor_id;sensor_type;location;lat;lon;timestamp;P1;durP1;ratioP1;P2;durP2;ratioP2
81221;SDS011;70691;52.492;13.420;2023-09-18T00:00:00;11.77;;;8.43;;
81221;SDS011;70691;52.492;13.420;2023-09-18T00:02:26;12.80;;;8.52;;
81221;SDS011;70691;52.492;13.420;2023-09-18T00:04:54;9.50;;;8.23;;
81221;SDS011;70691;52.492;13.420;2023-09-18T00:07:20;10.75;;;8.23;;
81221;SDS011;70691;52.492;13.420;2023-09-18T00:09:46;15.68;;;8.85;;
81221;SDS011;70691;52.492;13.420;2023-09-18T00:12:11;19.55;;;11.35;;
81221;SDS011;70691;52.492;13.420;2023-09-18T00:14:37;12.20;;;9.07;;
81221;SDS011;70691;52.492;13.420;2023-09-18T00:17:03;16.17;;;9.70;;
81221;SDS011;70691;52.492;13.420;2023-09-18T00:19:29;13.50;;;9.93;;
81221;SDS011;70691;52.492;13.420;2023-09-18T00:21:56;16.02;;;10.63;;
81221;SDS011;70691;52.492;13.420;2023-09-18T00:24:26;16.38;;;11.20;;
81221;SDS011;70691;52.492;13.420;2023-09-18T00:26:52;14.95;;;10.75;;
81221;SDS011;70691;52.492;13.420;2023-09-18T00:29:18;14.88;;;10.00;;
81221;SDS011;70691;52.492;13.420;2023-09-18T00:31:44;11.88;;;9.02;;
81221;SDS011;70691;52.492;13.420;2023-09-18T00:34:09;15.38;;;8.85;;
81221;SDS011;70691;52.492;13.420;2023-09-18T00:36:35;16.45;;;9.20;;
81221;SDS011;70691;52.492;13.420;2023-09-18T00:39:00;10.43;;;8.48;;
81221;SDS011;70691;52.492;13.420;2023-09-18T00:41:26;11.60;;;9.35;;
81221;SDS011;70691;52.492;13.420;2023-09-18T00:43:52;11.20;;;8.55;;
81221;SDS011;70691;52.492;13.420;2023-09-18T00:46:18;9.90;;;8.80;;
81221;SDS011;70691;52.492;13.420;2023-09-18T00:48:45;15.43;;;8.85;;
81221;SDS011;70691;52.492;13.420;2023-09-18T00:51:11;13.90;;;9.45;;
81221;SDS011;70691;52.492;13.420;2023-09-18T00:53:38;15.65;;;9.75;;
81221;SDS011;70691;52.492;13.420;2023-09-18T00:56:08;11.07;;;8.45;;
81221;SDS011;70691;52.492;13.420;2023-09-18T00:58:35;11.52;;;7.85;;
81221;SDS011;70691;52.492;13.420;2023-09-18T01:01:00;11.63;;;8.95;;
81221;SDS011;70691;52.492;13.420;2023-09-18T01:03:26;12.15;;;8.98;;
81221;SDS011;70691;52.492;13.420;2023-09-18T01:05:53;11.52;;;8.82;;
81221;SDS011;70691;52.492;13.420;2023-09-18T01:08:19;11.57;;;8.23;;
81221;SDS011;70691;52.492;13.420;2023-09-18T01:10:48;12.68;;;8.80;;
81221;SDS011;70691;52.492;13.420;2023-09-18T01:13:48;9.77;;;7.90;;
81221;SDS011;70691;52.492;13.420;2023-09-18T01:16:25;10.57;;;8.43;;
81221;SDS011;70691;52.492;13.420;2023-09-18T01:18:59;12.05;;;8.20;;
81221;SDS011;70691;52.492;13.420;2023-09-18T01:21:28;10.50;;;7.05;;
81221;SDS011;70691;52.492;13.420;2023-09-18T01:23:53;10.80;;;8.85;;
81221;SDS011;70691;52.492;13.420;2023-09-18T01:26:19;10.32;;;8.23;;
81221;SDS011;70691;52.492;13.420;2023-09-18T01:28:45;10.15;;;8.07;;
81221;SDS011;70691;52.492;13.420;2023-09-18T01:31:10;10.48;;;7.38;;
81221;SDS011;70691;52.492;13.420;2023-09-18T01:33:37;12.13;;;8.50;;
81221;SDS011;70691;52.492;13.420;2023-09-18T01:36:04;11.25;;;8.15;;
81221;SDS011;70691;52.492;13.420;2023-09-18T01:38:35;10.63;;;7.80;;
81221;SDS011;70691;52.492;13.420;2023-09-18T01:41:02;9.10;;;7.45;;
81221;SDS011;70691;52.492;13.420;2023-09-18T01:43:27;10.23;;;7.60;;
81221;SDS011;70691;52.492;13.420;2023-09-18T01:45:53;11.30;;;8.10;;
81221;SDS011;70691;52.492;13.420;2023-09-18T01:48:20;11.25;;;8.93;;
81221;SDS011;70691;52.492;13.420;2023-09-18T01:50:45;7.75;;;6.95;;
81221;SDS011;70691;52.492;13.420;2023-09-18T01:53:11;11.63;;;7.55;;
81221;SDS011;70691;52.492;13.420;2023-09-18T01:55:37;9.70;;;7.93;;
81221;SDS011;70691;52.492;13.420;2023-09-18T01:58:03;10.63;;;7.50;;
81221;SDS011;70691;52.492;13.420;2023-09-18T02:00:28;10.10;;;7.75;;
81221;SDS011;70691;52.492;13.420;2023-09-18T02:02:54;9.77;;;8.27;;
81221;SDS011;70691;52.492;13.420;2023-09-18T02:05:19;10.60;;;8.13;;
81221;SDS011;70691;52.492;13.420;2023-09-18T02:07:45;9.00;;;7.75;;
81221;SDS011;70691;52.492;13.420;2023-09-18T02:10:11;10.55;;;8.15;;
81221;SDS011;70691;52.492;13.420;2023-09-18T02:12:39;9.05;;;7.40;;
81221;SDS011;70691;52.492;13.420;2023-09-18T02:15:05;11.73;;;7.72;;
81221;SDS011;70691;52.492;13.420;2023-09-18T02:17:32;10.80;;;7.40;;
81221;SDS011;70691;52.492;13.420;2023-09-18T02:19:57;9.95;;;8.43;;
81221;SDS011;70691;52.492;13.420;2023-09-18T02:22:24;12.32;;;8.43;;
81221;SDS011;70691;52.492;13.420;2023-09-18T02:24:50;11.68;;;8.82;;
81221;SDS011;70691;52.492;13.420;2023-09-18T02:27:15;11.02;;;8.77;;
81221;SDS011;70691;52.492;13.420;2023-09-18T02:29:43;11.73;;;8.32;;
81221;SDS011;70691;52.492;13.420;2023-09-18T02:32:09;14.50;;;9.48;;
81221;SDS011;70691;52.492;13.420;2023-09-18T02:34:35;11.65;;;8.48;;
81221;SDS011;70691;52.492;13.420;2023-09-18T02:37:00;10.98;;;8.05;;
81221;SDS011;70691;52.492;13.420;2023-09-18T02:39:26;11.32;;;8.15;;
81221;SDS011;70691;52.492;13.420;2023-09-18T02:41:52;12.15;;;8.05;;
81221;SDS011;70691;52.492;13.420;2023-09-18T02:44:18;10.82;;;8.13;;
81221;SDS011;70691;52.492;13.420;2023-09-18T02:46:43;10.30;;;7.90;;
81221;SDS011;70691;52.492;13.420;2023-09-18T02:49:09;13.02;;;8.43;;
81221;SDS011;70691;52.492;13.420;2023-09-18T02:51:34;12.68;;;8.18;;
81221;SDS011;70691;52.492;13.420;2023-09-18T02:54:00;12.10;;;8.00;;
81221;SDS011;70691;52.492;13.420;2023-09-18T02:56:26;13.30;;;8.57;;
81221;SDS011;70691;52.492;13.420;2023-09-18T02:58:51;11.85;;;7.75;;
81221;SDS011;70691;52.492;13.420;2023-09-18T03:01:17;13.70;;;9.30;;
81221;SDS011;70691;52.492;13.420;2023-09-18T03:03:42;11.95;;;8.45;;
81221;SDS011;70691;52.492;13.420;2023-09-18T03:06:08;9.25;;;7.53;;
81221;SDS011;70691;52.492;13.420;2023-09-18T03:08:34;9.38;;;7.53;;
81221;SDS011;70691;52.492;13.420;2023-09-18T03:11:00;10.18;;;8.10;;
81221;SDS011;70691;52.492;13.420;2023-09-18T03:13:30;11.30;;;8.20;;
81221;SDS011;70691;52.492;13.420;2023-09-18T03:15:56;14.93;;;8.60;;
81221;SDS011;70691;52.492;13.420;2023-09-18T03:18:22;11.35;;;9.35;;
81221;SDS011;70691;52.492;13.420;2023-09-18T03:20:48;9.68;;;7.93;;
81221;SDS011;70691;52.492;13.420;2023-09-18T03:23:13;12.35;;;8.55;;
81221;SDS011;70691;52.492;13.420;2023-09-18T03:25:39;10.82;;;8.57;;
81221;SDS011;70691;52.492;13.420;2023-09-18T03:28:05;10.55;;;8.32;;
81221;SDS011;70691;52.492;13.420;2023-09-18T03:30:31;9.68;;;8.32;;
81221;SDS011;70691;52.492;13.420;2023-09-18T03:32:57;14.43;;;7.70;;
81221;SDS011;70691;52.492;13.420;2023-09-18T03:35:22;9.48;;;7.65;;
81221;SDS011;70691;52.492;13.420;2023-09-18T03:37:50;10.98;;;8.23;;
81221;SDS011;70691;52.492;13.420;2023-09-18T03:40:17;11.82;;;8.40;;
81221;SDS011;70691;52.492;13.420;2023-09-18T03:42:43;12.45;;;8.77;;
81221;SDS011;70691;52.492;13.420;2023-09-18T03:45:09;9.77;;;7.57;;
81221;SDS011;70691;52.492;13.420;2023-09-18T03:47:36;11.18;;;8.38;;
81221;SDS011;70691;52.492;13.420;2023-09-18T03:50:06;11.82;;;8.45;;
81221;SDS011;70691;52.492;13.420;2023-09-18T03:52:32;9.75;;;7.60;;
81221;SDS011;70691;52.492;13.420;2023-09-18T03:54:58;11.00;;;8.25;;
81221;SDS011;70691;52.492;13.420;2023-09-18T03:57:24;9.40;;;7.78;;
81221;SDS011;70691;52.492;13.420;2023-09-18T03:59:50;10.82;;;7.35;;
81221;SDS011;70691;52.492;13.420;2023-09-18T04:02:15;10.40;;;7.75;;
81221;SDS011;70691;52.492;13.420;2023-09-18T04:04:41;15.18;;;8.80;;
81221;SDS011;70691;52.492;13.420;2023-09-18T04:07:07;10.45;;;8.45;;
81221;SDS011;70691;52.492;13.420;2023-09-18T04:09:36;10.32;;;7.43;;
81221;SDS011;70691;52.492;13.420;2023-09-18T04:12:16;11.52;;;8.38;;
81221;SDS011;70691;52.492;13.420;2023-09-18T04:14:41;10.80;;;8.18;;
81221;SDS011;70691;52.492;13.420;2023-09-18T04:17:07;10.30;;;7.80;;
81221;SDS011;70691;52.492;13.420;2023-09-18T04:19:33;9.98;;;8.30;;
81221;SDS011;70691;52.492;13.420;2023-09-18T04:21:58;10.57;;;8.25;;
81221;SDS011;70691;52.492;13.420;2023-09-18T04:24:25;13.85;;;7.60;;
81221;SDS011;70691;52.492;13.420;2023-09-18T04:26:51;12.57;;;7.72;;
81221;SDS011;70691;52.492;13.420;2023-09-18T04:29:17;9.32;;;7.50;;
81221;SDS011;70691;52.492;13.420;2023-09-18T04:31:43;13.70;;;8.23;;
81221;SDS011;70691;52.492;13.420;2023-09-18T04:34:10;8.80;;;7.47;;
81221;SDS011;70691;52.492;13.420;2023-09-18T04:36:35;11.88;;;7.88;;
81221;SDS011;70691;52.492;13.420;2023-09-18T04:39:02;10.88;;;7.75;;
81221;SDS011;70691;52.492;13.420;2023-09-18T04:41:29;12.63;;;8.50;;
81221;SDS011;70691;52.492;13.420;2023-09-18T04:43:55;10.90;;;8.50;;
81221;SDS011;70691;52.492;13.420;2023-09-18T04:46:21;10.98;;;8.27;;
81221;SDS011;70691;52.492;13.420;2023-09-18T04:48:47;18.05;;;8.75;;
81221;SDS011;70691;52.492;13.420;2023-09-18T04:51:12;12.60;;;9.80;;
81221;SDS011;70691;52.492;13.420;2023-09-18T04:53:38;9.90;;;7.75;;
81221;SDS011;70691;52.492;13.420;2023-09-18T04:56:04;9.90;;;8.25;;
81221;SDS011;70691;52.492;13.420;2023-09-18T04:58:30;11.30;;;7.50;;
81221;SDS011;70691;52.492;13.420;2023-09-18T05:00:57;11.43;;;7.57;;
81221;SDS011;70691;52.492;13.420;2023-09-18T05:03:24;12.38;;;7.53;;
81221;SDS011;70691;52.492;13.420;2023-09-18T05:05:52;11.68;;;7.68;;
81221;SDS011;70691;52.492;13.420;2023-09-18T05:08:18;10.73;;;7.93;;
81221;SDS011;70691;52.492;13.420;2023-09-18T05:10:44;14.10;;;9.32;;
81221;SDS011;70691;52.492;13.420;2023-09-18T05:13:11;15.90;;;8.95;;
81221;SDS011;70691;52.492;13.420;2023-09-18T05:15:37;10.88;;;7.60;;
81221;SDS011;70691;52.492;13.420;2023-09-18T05:18:02;12.70;;;7.60;;
81221;SDS011;70691;52.492;13.420;2023-09-18T05:20:29;17.10;;;10.10;;
81221;SDS011;70691;52.492;13.420;2023-09-18T05:22:56;19.70;;;9.10;;
81221;SDS011;70691;52.492;13.420;2023-09-18T05:25:22;15.45;;;8.82;;
81221;SDS011;70691;52.492;13.420;2023-09-18T05:27:53;10.85;;;8.45;;
81221;SDS011;70691;52.492;13.420;2023-09-18T05:30:29;14.43;;;9.03;;
81221;SDS011;70691;52.492;13.420;2023-09-18T05:32:57;10.68;;;8.27;;
81221;SDS011;70691;52.492;13.420;2023-09-18T05:35:33;11.75;;;8.88;;
81221;SDS011;70691;52.492;13.420;2023-09-18T05:38:06;14.90;;;9.00;;
81221;SDS011;70691;52.492;13.420;2023-09-18T05:40:33;14.32;;;8.90;;
81221;SDS011;70691;52.492;13.420;2023-09-18T05:42:59;12.10;;;7.95;;
81221;SDS011;70691;52.492;13.420;2023-09-18T05:45:25;15.77;;;8.30;;
81221;SDS011;70691;52.492;13.420;2023-09-18T05:47:52;12.80;;;8.05;;
81221;SDS011;70691;52.492;13.420;2023-09-18T05:50:18;12.40;;;8.77;;
81221;SDS011;70691;52.492;13.420;2023-09-18T05:52:46;15.70;;;8.30;;
81221;SDS011;70691;52.492;13.420;2023-09-18T05:55:13;14.98;;;8.52;;
81221;SDS011;70691;52.492;13.420;2023-09-18T05:57:40;9.13;;;7.10;;
81221;SDS011;70691;52.492;13.420;2023-09-18T06:00:06;11.93;;;8.07;;
81221;SDS011;70691;52.492;13.420;2023-09-18T06:02:32;11.82;;;8.07;;
81221;SDS011;70691;52.492;13.420;2023-09-18T06:04:58;15.38;;;8.63;;
81221;SDS011;70691;52.492;13.420;2023-09-18T06:07:31;17.60;;;8.13;;
81221;SDS011;70691;52.492;13.420;2023-09-18T06:09:57;13.20;;;8.00;;
81221;SDS011;70691;52.492;13.420;2023-09-18T06:12:23;15.40;;;7.10;;
81221;SDS011;70691;52.492;13.420;2023-09-18T06:14:50;12.20;;;8.50;;
81221;SDS011;70691;52.492;13.420;2023-09-18T06:17:16;12.52;;;7.60;;
81221;SDS011;70691;52.492;13.420;2023-09-18T06:19:42;17.33;;;7.57;;
81221;SDS011;70691;52.492;13.420;2023-09-18T06:22:10;15.20;;;7.53;;
81221;SDS011;70691;52.492;13.420;2023-09-18T06:24:36;11.55;;;7.65;;
81221;SDS011;70691;52.492;13.420;2023-09-18T06:27:02;10.95;;;7.35;;
81221;SDS011;70691;52.492;13.420;2023-09-18T06:29:31;12.88;;;7.78;;
81221;SDS011;70691;52.492;13.420;2023-09-18T06:31:58;13.85;;;7.45;;
81221;SDS011;70691;52.492;13.420;2023-09-18T06:34:24;16.40;;;6.88;;
81221;SDS011;70691;52.492;13.420;2023-09-18T06:36:50;11.00;;;7.15;;
81221;SDS011;70691;52.492;13.420;2023-09-18T06:39:15;11.63;;;7.22;;
81221;SDS011;70691;52.492;13.420;2023-09-18T06:41:41;8.93;;;6.50;;
81221;SDS011;70691;52.492;13.420;2023-09-18T06:44:07;10.95;;;7.30;;
81221;SDS011;70691;52.492;13.420;2023-09-18T06:46:32;14.35;;;7.15;;
81221;SDS011;70691;52.492;13.420;2023-09-18T06:48:58;11.20;;;6.85;;
81221;SDS011;70691;52.492;13.420;2023-09-18T06:51:26;12.50;;;8.00;;
81221;SDS011;70691;52.492;13.420;2023-09-18T06:53:55;11.38;;;7.28;;
81221;SDS011;70691;52.492;13.420;2023-09-18T06:56:22;8.73;;;6.55;;
81221;SDS011;70691;52.492;13.420;2023-09-18T06:58:49;10.95;;;7.95;;
81221;SDS011;70691;52.492;13.420;2023-09-18T07:01:16;10.63;;;6.63;;
81221;SDS011;70691;52.492;13.420;2023-09-18T07:03:43;10.95;;;7.03;;
81221;SDS011;70691;52.492;13.420;2023-09-18T07:06:12;13.20;;;7.07;;
81221;SDS011;70691;52.492;13.420;2023-09-18T07:08:39;10.45;;;6.32;;
81221;SDS011;70691;52.492;13.420;2023-09-18T07:11:04;9.93;;;6.00;;
81221;SDS011;70691;52.492;13.420;2023-09-18T07:13:30;18.92;;;6.55;;
81221;SDS011;70691;52.492;13.420;2023-09-18T07:15:56;8.50;;;5.60;;
81221;SDS011;70691;52.492;13.420;2023-09-18T07:18:21;11.88;;;6.07;;
81221;SDS011;70691;52.492;13.420;2023-09-18T07:20:47;8.68;;;5.85;;
81221;SDS011;70691;52.492;13.420;2023-09-18T07:23:13;9.00;;;5.75;;
81221;SDS011;70691;52.492;13.420;2023-09-18T07:25:39;9.70;;;5.20;;
81221;SDS011;70691;52.492;13.420;2023-09-18T07:28:06;12.57;;;6.15;;
81221;SDS011;70691;52.492;13.420;2023-09-18T07:30:31;8.32;;;5.03;;
81221;SDS011;70691;52.492;13.420;2023-09-18T07:32:58;16.40;;;7.55;;
81221;SDS011;70691;52.492;13.420;2023-09-18T07:35:25;35.22;;;9.85;;
81221;SDS011;70691;52.492;13.420;2023-09-18T07:37:51;21.45;;;10.90;;
81221;SDS011;70691;52.492;13.420;2023-09-18T07:40:17;36.85;;;11.48;;
81221;SDS011;70691;52.492;13.420;2023-09-18T07:42:42;19.52;;;11.80;;
81221;SDS011;70691;52.492;13.420;2023-09-18T07:45:11;29.30;;;10.30;;
81221;SDS011;70691;52.492;13.420;2023-09-18T07:47:38;16.67;;;8.20;;
81221;SDS011;70691;52.492;13.420;2023-09-18T07:50:04;8.25;;;4.72;;
81221;SDS011;70691;52.492;13.420;2023-09-18T07:52:30;9.00;;;5.63;;
81221;SDS011;70691;52.492;13.420;2023-09-18T07:54:56;15.68;;;7.57;;
81221;SDS011;70691;52.492;13.420;2023-09-18T07:57:23;7.50;;;5.45;;
81221;SDS011;70691;52.492;13.420;2023-09-18T07:59:49;7.60;;;5.80;;
81221;SDS011;70691;52.492;13.420;2023-09-18T08:02:15;8.82;;;6.35;;
81221;SDS011;70691;52.492;13.420;2023-09-18T08:04:41;8.02;;;5.72;;
81221;SDS011;70691;52.492;13.420;2023-09-18T08:07:07;10.80;;;6.07;;
81221;SDS011;70691;52.492;13.420;2023-09-18T08:09:33;8.10;;;6.00;;
81221;SDS011;70691;52.492;13.420;2023-09-18T08:12:02;8.23;;;4.65;;
81221;SDS011;70691;52.492;13.420;2023-09-18T08:14:28;9.55;;;7.00;;
81221;SDS011;70691;52.492;13.420;2023-09-18T08:16:57;10.27;;;5.90;;
81221;SDS011;70691;52.492;13.420;2023-09-18T08:19:25;5.70;;;4.25;;
81221;SDS011;70691;52.492;13.420;2023-09-18T08:21:52;11.15;;;4.90;;
81221;SDS011;70691;52.492;13.420;2023-09-18T08:24:19;7.97;;;4.47;;
81221;SDS011;70691;52.492;13.420;2023-09-18T08:26:46;7.70;;;4.47;;
81221;SDS011;70691;52.492;13.420;2023-09-18T08:29:12;6.10;;;4.82;;
81221;SDS011;70691;52.492;13.420;2023-09-18T08:31:38;6.28;;;4.75;;
81221;SDS011;70691;52.492;13.420;2023-09-18T08:34:03;8.77;;;5.55;;
81221;SDS011;70691;52.492;13.420;2023-09-18T08:36:29;9.60;;;6.15;;
81221;SDS011;70691;52.492;13.420;2023-09-18T08:38:55;6.32;;;4.65;;
81221;SDS011;70691;52.492;13.420;2023-09-18T08:41:21;9.75;;;5.03;;
81221;SDS011;70691;52.492;13.420;2023-09-18T08:43:51;5.95;;;4.68;;
81221;SDS011;70691;52.492;13.420;2023-09-18T08:46:20;7.03;;;4.70;;
81221;SDS011;70691;52.492;13.420;2023-09-18T08:48:46;6.97;;;5.47;;
81221;SDS011;70691;52.492;13.420;2023-09-18T08:51:14;8.55;;;5.18;;
81221;SDS011;70691;52.492;13.420;2023-09-18T08:53:41;6.28;;;5.18;;
81221;SDS011;70691;52.492;13.420;2023-09-18T08:56:08;6.53;;;5.18;;
81221;SDS011;70691;52.492;13.420;2023-09-18T08:58:35;6.00;;;4.70;;
81221;SDS011;70691;52.492;13.420;2023-09-18T09:01:04;6.47;;;4.72;;
81221;SDS011;70691;52.492;13.420;2023-09-18T09:03:31;7.63;;;4.47;;
81221;SDS011;70691;52.492;13.420;2023-09-18T09:05:59;10.95;;;4.93;;
81221;SDS011;70691;52.492;13.420;2023-09-18T09:08:27;5.20;;;4.20;;
81221;SDS011;70691;52.492;13.420;2023-09-18T09:10:53;8.55;;;4.70;;
81221;SDS011;70691;52.492;13.420;2023-09-18T09:13:19;7.18;;;4.15;;
81221;SDS011;70691;52.492;13.420;2023-09-18T09:15:51;6.43;;;3.47;;
81221;SDS011;70691;52.492;13.420;2023-09-18T09:18:21;8.60;;;4.43;;
81221;SDS011;70691;52.492;13.420;2023-09-18T09:20:52;14.30;;;5.03;;
81221;SDS011;70691;52.492;13.420;2023-09-18T09:23:30;5.43;;;4.13;;
81221;SDS011;70691;52.492;13.420;2023-09-18T09:26:21;4.90;;;3.85;;
81221;SDS011;70691;52.492;13.420;2023-09-18T09:28:47;7.38;;;4.03;;
81221;SDS011;70691;52.492;13.420;2023-09-18T09:31:27;4.70;;;3.85;;
81221;SDS011;70691;52.492;13.420;2023-09-18T09:33:54;4.28;;;3.28;;
81221;SDS011;70691;52.492;13.420;2023-09-18T09:36:21;4.30;;;3.33;;
81221;SDS011;70691;52.492;13.420;2023-09-18T09:38:47;9.35;;;4.40;;
81221;SDS011;70691;52.492;13.420;2023-09-18T09:41:14;9.70;;;4.47;;
81221;SDS011;70691;52.492;13.420;2023-09-18T09:43:41;5.30;;;4.10;;
81221;SDS011;70691;52.492;13.420;2023-09-18T09:46:14;6.93;;;4.40;;
81221;SDS011;70691;52.492;13.420;2023-09-18T09:49:05;9.02;;;5.22;;
81221;SDS011;70691;52.492;13.420;2023-09-18T09:51:31;5.78;;;4.20;;
81221;SDS011;70691;52.492;13.420;2023-09-18T09:53:59;7.38;;;3.85;;
81221;SDS011;70691;52.492;13.420;2023-09-18T09:59:11;12.07;;;5.18;;
81221;SDS011;70691;52.492;13.420;2023-09-18T10:01:38;22.95;;;4.85;;
81221;SDS011;70691;52.492;13.420;2023-09-18T10:04:08;14.07;;;5.90;;
81221;SDS011;70691;52.492;13.420;2023-09-18T10:06:35;6.30;;;4.40;;
81221;SDS011;70691;52.492;13.420;2023-09-18T10:09:02;8.98;;;3.95;;
81221;SDS011;70691;52.492;13.420;2023-09-18T10:11:31;9.68;;;4.57;;
81221;SDS011;70691;52.492;13.420;2023-09-18T10:14:04;9.48;;;4.93;;
81221;SDS011;70691;52.492;13.420;2023-09-18T10:16:38;8.68;;;4.65;;
81221;SDS011;70691;52.492;13.420;2023-09-18T10:19:13;11.02;;;5.20;;
81221;SDS011;70691;52.492;13.420;2023-09-18T10:24:23;9.30;;;4.53;;
81221;SDS011;70691;52.492;13.420;2023-09-18T10:26:51;17.55;;;4.72;;
81221;SDS011;70691;52.492;13.420;2023-09-18T10:29:21;11.90;;;4.90;;
81221;SDS011;70691;52.492;13.420;2023-09-18T10:31:49;7.57;;;5.03;;
81221;SDS011;70691;52.492;13.420;2023-09-18T10:34:19;6.95;;;4.45;;
81221;SDS011;70691;52.492;13.420;2023-09-18T10:36:49;13.75;;;5.68;;
81221;SDS011;70691;52.492;13.420;2023-09-18T10:39:16;9.27;;;6.25;;
81221;SDS011;70691;52.492;13.420;2023-09-18T10:41:48;7.07;;;4.72;;
81221;SDS011;70691;52.492;13.420;2023-09-18T10:44:16;8.23;;;4.83;;
81221;SDS011;70691;52.492;13.420;2023-09-18T10:46:43;5.50;;;4.22;;
81221;SDS011;70691;52.492;13.420;2023-09-18T10:49:10;6.00;;;4.18;;
81221;SDS011;70691;52.492;13.420;2023-09-18T10:51:37;11.20;;;5.35;;
81221;SDS011;70691;52.492;13.420;2023-09-18T10:54:10;7.85;;;4.10;;
81221;SDS011;70691;52.492;13.420;2023-09-18T10:56:40;6.47;;;4.15;;
81221;SDS011;70691;52.492;13.420;2023-09-18T10:59:07;6.38;;;4.65;;
81221;SDS011;70691;52.492;13.420;2023-09-18T11:01:36;4.45;;;3.42;;
81221;SDS011;70691;52.492;13.420;2023-09-18T11:04:05;17.00;;;6.65;;
81221;SDS011;70691;52.492;13.420;2023-09-18T11:11:51;10.73;;;6.15;;
81221;SDS011;70691;52.492;13.420;2023-09-18T11:14:40;7.43;;;5.07;;
81221;SDS011;70691;52.492;13.420;2023-09-18T11:20:04;6.68;;;5.22;;
81221;SDS011;70691;52.492;13.420;2023-09-18T11:22:45;10.25;;;5.95;;
81221;SDS011;70691;52.492;13.420;2023-09-18T11:28:14;8.38;;;4.38;;
81221;SDS011;70691;52.492;13.420;2023-09-18T11:30:56;7.00;;;4.32;;
81221;SDS011;70691;52.492;13.420;2023-09-18T11:33:38;5.65;;;3.75;;
81221;SDS011;70691;52.492;13.420;2023-09-18T11:36:13;10.15;;;4.22;;
81221;SDS011;70691;52.492;13.420;2023-09-18T11:38:56;6.97;;;5.30;;
81221;SDS011;70691;52.492;13.420;2023-09-18T11:41:24;8.15;;;4.63;;
81221;SDS011;70691;52.492;13.420;2023-09-18T11:43:51;9.93;;;6.50;;
81221;SDS011;70691;52.492;13.420;2023-09-18T11:46:18;11.82;;;6.35;;
81221;SDS011;70691;52.492;13.420;2023-09-18T11:48:47;6.85;;;4.95;;
81221;SDS011;70691;52.492;13.420;2023-09-18T11:51:20;10.90;;;5.80;;
81221;SDS011;70691;52.492;13.420;2023-09-18T11:53:49;9.95;;;6.32;;
81221;SDS011;70691;52.492;13.420;2023-09-18T11:56:18;10.77;;;5.82;;
81221;SDS011;70691;52.492;13.420;2023-09-18T11:58:45;9.90;;;5.13;;
81221;SDS011;70691;52.492;13.420;2023-09-18T12:01:14;11.68;;;5.95;;
81221;SDS011;70691;52.492;13.420;2023-09-18T12:03:40;11.40;;;4.38;;
81221;SDS011;70691;52.492;13.420;2023-09-18T12:06:07;5.25;;;4.13;;
81221;SDS011;70691;52.492;13.420;2023-09-18T12:08:34;7.97;;;4.45;;
81221;SDS011;70691;52.492;13.420;2023-09-18T12:11:03;9.95;;;6.18;;
81221;SDS011;70691;52.492;13.420;2023-09-18T12:13:33;13.85;;;5.45;;
81221;SDS011;70691;52.492;13.420;2023-09-18T12:15:59;7.95;;;4.30;;
81221;SDS011;70691;52.492;13.420;2023-09-18T12:18:30;4.70;;;3.60;;
81221;SDS011;70691;52.492;13.420;2023-09-18T12:20:59;12.65;;;5.93;;
81221;SDS011;70691;52.492;13.420;2023-09-18T12:23:26;8.38;;;5.28;;
81221;SDS011;70691;52.492;13.420;2023-09-18T12:25:59;6.90;;;4.70;;
81221;SDS011;70691;52.492;13.420;2023-09-18T12:28:26;5.70;;;3.85;;
81221;SDS011;70691;52.492;13.420;2023-09-18T12:30:53;5.95;;;3.38;;
81221;SDS011;70691;52.492;13.420;2023-09-18T12:33:21;12.35;;;4.15;;
81221;SDS011;70691;52.492;13.420;2023-09-18T12:35:47;8.88;;;3.88;;
81221;SDS011;70691;52.492;13.420;2023-09-18T12:38:16;4.70;;;3.10;;
81221;SDS011;70691;52.492;13.420;2023-09-18T12:40:50;7.28;;;4.53;;
81221;SDS011;70691;52.492;13.420;2023-09-18T12:43:16;7.93;;;4.95;;
81221;SDS011;70691;52.492;13.420;2023-09-18T12:45:43;10.13;;;5.90;;
81221;SDS011;70691;52.492;13.420;2023-09-18T12:48:11;8.30;;;4.35;;
81221;SDS011;70691;52.492;13.420;2023-09-18T12:50:37;7.43;;;4.05;;
81221;SDS011;70691;52.492;13.420;2023-09-18T12:53:08;6.35;;;4.00;;
81221;SDS011;70691;52.492;13.420;2023-09-18T12:55:38;7.63;;;4.97;;
81221;SDS011;70691;52.492;13.420;2023-09-18T12:58:05;6.97;;;4.40;;
81221;SDS011;70691;52.492;13.420;2023-09-18T13:00:34;7.15;;;4.57;;
81221;SDS011;70691;52.492;13.420;2023-09-18T13:03:00;10.52;;;3.83;;
81221;SDS011;70691;52.492;13.420;2023-09-18T13:05:29;5.07;;;3.33;;
81221;SDS011;70691;52.492;13.420;2023-09-18T13:08:01;6.55;;;5.00;;
81221;SDS011;70691;52.492;13.420;2023-09-18T13:10:28;8.90;;;4.25;;
81221;SDS011;70691;52.492;13.420;2023-09-18T13:12:54;11.35;;;4.18;;
81221;SDS011;70691;52.492;13.420;2023-09-18T13:15:30;9.18;;;3.88;;
81221;SDS011;70691;52.492;13.420;2023-09-18T13:17:58;6.15;;;3.80;;
81221;SDS011;70691;52.492;13.420;2023-09-18T13:20:26;7.25;;;3.50;;
81221;SDS011;70691;52.492;13.420;2023-09-18T13:22:57;10.40;;;4.65;;
81221;SDS011;70691;52.492;13.420;2023-09-18T13:25:31;6.35;;;3.72;;
81221;SDS011;70691;52.492;13.420;2023-09-18T13:28:03;5.53;;;3.25;;
81221;SDS011;70691;52.492;13.420;2023-09-18T13:30:33;19.45;;;4.72;;
81221;SDS011;70691;52.492;13.420;2023-09-18T13:33:03;12.60;;;3.50;;
81221;SDS011;70691;52.492;13.420;2023-09-18T13:35:37;9.23;;;5.13;;
81221;SDS011;70691;52.492;13.420;2023-09-18T13:38:07;16.85;;;3.92;;
81221;SDS011;70691;52.492;13.420;2023-09-18T13:40:33;5.25;;;3.78;;
81221;SDS011;70691;52.492;13.420;2023-09-18T13:43:03;6.85;;;3.63;;
81221;SDS011;70691;52.492;13.420;2023-09-18T13:45:30;8.45;;;4.43;;
81221;SDS011;70691;52.492;13.420;2023-09-18T13:47:57;9.68;;;4.75;;
81221;SDS011;70691;52.492;13.420;2023-09-18T13:50:22;6.22;;;4.50;;
81221;SDS011;70691;52.492;13.420;2023-09-18T13:52:48;12.65;;;5.90;;
81221;SDS011;70691;52.492;13.420;2023-09-18T13:55:13;9.80;;;6.10;;
81221;SDS011;70691;52.492;13.420;2023-09-18T13:57:39;9.90;;;5.20;;
81221;SDS011;70691;52.492;13.420;2023-09-18T14:00:05;9.70;;;6.75;;
81221;SDS011;70691;52.492;13.420;2023-09-18T14:02:33;12.32;;;4.68;;
81221;SDS011;70691;52.492;13.420;2023-09-18T14:04:59;9.88;;;4.68;;
81221;SDS011;70691;52.492;13.420;2023-09-18T14:07:25;9.65;;;5.07;;
81221;SDS011;70691;52.492;13.420;2023-09-18T14:09:50;6.97;;;5.07;;
81221;SDS011;70691;52.492;13.420;2023-09-18T14:12:16;11.48;;;5.47;;
81221;SDS011;70691;52.492;13.420;2023-09-18T14:14:42;15.45;;;5.85;;
81221;SDS011;70691;52.492;13.420;2023-09-18T14:17:08;10.82;;;6.50;;
81221;SDS011;70691;52.492;13.420;2023-09-18T14:19:34;10.20;;;6.50;;
81221;SDS011;70691;52.492;13.420;2023-09-18T14:22:03;16.38;;;8.10;;
81221;SDS011;70691;52.492;13.420;2023-09-18T14:24:30;16.63;;;9.20;;
81221;SDS011;70691;52.492;13.420;2023-09-18T14:26:56;16.00;;;9.15;;
81221;SDS011;70691;52.492;13.420;2023-09-18T14:29:22;16.33;;;7.75;;
81221;SDS011;70691;52.492;13.420;2023-09-18T14:31:48;9.05;;;4.70;;
81221;SDS011;70691;52.492;13.420;2023-09-18T14:34:14;7.93;;;4.47;;
81221;SDS011;70691;52.492;13.420;2023-09-18T14:39:09;7.20;;;3.88;;
81221;SDS011;70691;52.492;13.420;2023-09-18T14:41:36;7.55;;;3.22;;
81221;SDS011;70691;52.492;13.420;2023-09-18T14:44:02;10.35;;;3.15;;
81221;SDS011;70691;52.492;13.420;2023-09-18T14:46:29;5.80;;;3.53;;